createdAt,value
2022-10-30T00:00:04.563Z,99.90
2022-10-30T00:02:33.736Z,99.90
2022-10-30T00:05:01.522Z,99.90
2022-10-30T00:07:29.285Z,99.90
2022-10-30T00:09:57.169Z,99.90
2022-10-30T00:12:25.076Z,99.90
2022-10-30T00:14:52.912Z,99.90
2022-10-30T00:24:23.841Z,99.90
2022-10-30T00:26:51.653Z,99.90
2022-10-30T00:29:19.747Z,99.90
2022-10-30T00:31:47.578Z,99.90
2022-10-30T00:34:15.922Z,99.90
2022-10-30T00:36:43.732Z,99.90
2022-10-30T00:46:58.847Z,99.90
2022-10-30T00:53:20.116Z,99.90
2022-10-30T00:55:49.464Z,99.90
2022-10-30T00:58:18.728Z,99.90
2022-10-30T01:00:49.570Z,99.90
2022-10-30T01:03:18.739Z,99.90
2022-10-30T01:05:46.893Z,99.90
2022-10-30T01:08:14.750Z,99.90
2022-10-30T01:10:42.556Z,99.90
2022-10-30T01:13:10.495Z,99.90
2022-10-30T01:15:39.340Z,99.90
2022-10-30T01:18:20.584Z,99.90
2022-10-30T01:25:33.423Z,99.90
2022-10-30T01:32:29.578Z,99.90
2022-10-30T01:38:48.547Z,99.90
2022-10-30T01:41:16.389Z,99.90
2022-10-30T01:43:44.188Z,99.90
2022-10-30T02:01:23.191Z,99.90
2022-10-30T02:03:51.174Z,99.90
2022-10-30T02:06:28.499Z,99.90
2022-10-30T02:12:36.975Z,99.90
2022-10-30T02:15:05.319Z,99.90
2022-10-30T02:17:34.515Z,99.90
2022-10-30T02:20:02.363Z,99.90
2022-10-30T02:22:31.618Z,99.90
2022-10-30T02:24:59.500Z,99.90
2022-10-30T02:27:27.333Z,99.90
2022-10-30T02:29:55.168Z,99.90
2022-10-30T02:32:23.125Z,99.90
2022-10-30T02:34:50.955Z,99.90
2022-10-30T02:37:18.772Z,99.90
2022-10-30T02:39:47.925Z,99.90
2022-10-30T02:42:15.764Z,99.90
2022-10-30T02:44:43.587Z,99.90
2022-10-30T02:47:11.415Z,99.90
2022-10-30T02:49:39.239Z,99.90
2022-10-30T02:52:08.044Z,99.90
2022-10-30T02:54:35.874Z,99.90
2022-10-30T02:57:05.128Z,99.90
2022-10-30T02:59:32.957Z,99.90
2022-10-30T03:02:01.027Z,99.90
2022-10-30T03:04:28.968Z,99.90
2022-10-30T03:06:56.810Z,99.90
2022-10-30T03:09:24.638Z,99.90
2022-10-30T03:11:52.458Z,99.90
2022-10-30T03:15:13.574Z,99.90
2022-10-30T03:17:42.773Z,99.90
2022-10-30T03:30:48.788Z,99.90
2022-10-30T03:33:18.096Z,99.90
2022-10-30T03:39:26.808Z,99.90
2022-10-30T03:41:57.735Z,99.90
2022-10-30T03:44:25.487Z,99.90
2022-10-30T03:46:53.270Z,99.90
2022-10-30T03:49:22.396Z,99.90
2022-10-30T03:51:50.185Z,99.90
2022-10-30T03:54:18.402Z,99.90
2022-10-30T03:56:46.296Z,99.90
2022-10-30T04:03:02.320Z,99.90
2022-10-30T04:05:32.602Z,99.90
2022-10-30T04:08:02.036Z,99.90
2022-10-30T04:10:29.941Z,99.90
2022-10-30T04:13:01.083Z,99.90
2022-10-30T04:15:28.894Z,99.90
2022-10-30T04:17:57.089Z,99.90
2022-10-30T04:20:25.586Z,99.90
2022-10-30T04:22:58.385Z,99.90
2022-10-30T04:25:26.540Z,99.90
2022-10-30T04:27:54.685Z,99.90
2022-10-30T04:30:24.062Z,99.90
2022-10-30T04:32:52.689Z,99.90
2022-10-30T04:35:45.141Z,99.90
2022-10-30T04:49:15.883Z,99.90
2022-10-30T04:52:17.612Z,99.90
2022-10-30T04:54:45.487Z,99.90
2022-10-30T04:57:13.327Z,99.90
2022-10-30T04:59:41.172Z,99.90
2022-10-30T05:02:10.752Z,99.90
2022-10-30T05:07:22.668Z,99.90
2022-10-30T05:17:18.676Z,99.90
2022-10-30T05:19:46.503Z,99.90
2022-10-30T05:22:14.321Z,99.90
2022-10-30T05:24:42.153Z,99.90
2022-10-30T05:27:09.953Z,99.90
2022-10-30T05:29:37.757Z,99.90
2022-10-30T05:32:06.080Z,99.90
2022-10-30T05:34:35.308Z,99.90
2022-10-30T05:37:03.167Z,99.90
2022-10-30T05:39:31.102Z,99.90
2022-10-30T05:41:58.901Z,99.90
2022-10-30T05:44:40.799Z,99.90
2022-10-30T05:47:14.697Z,99.90
2022-10-30T05:49:43.962Z,99.90
2022-10-30T05:52:11.806Z,99.90
2022-10-30T05:54:39.710Z,99.90
2022-10-30T05:57:07.517Z,99.90
2022-10-30T05:59:35.501Z,99.90
2022-10-30T06:02:03.466Z,99.90
2022-10-30T06:04:31.379Z,99.90
2022-10-30T06:07:00.586Z,99.90
2022-10-30T06:09:28.415Z,99.90
2022-10-30T06:11:56.316Z,99.90
2022-10-30T06:14:24.293Z,99.90
2022-10-30T06:16:52.269Z,99.90
2022-10-30T06:19:20.122Z,99.90
2022-10-30T06:21:48.021Z,99.90
2022-10-30T06:24:17.362Z,99.90
2022-10-30T06:26:45.251Z,99.90
2022-10-30T06:29:13.126Z,99.90
2022-10-30T06:31:41.118Z,99.90
2022-10-30T06:34:09.017Z,99.90
2022-10-30T06:36:36.942Z,99.90
2022-10-30T06:39:05.024Z,99.90
2022-10-30T06:41:34.792Z,99.90
2022-10-30T06:44:02.770Z,99.90
2022-10-30T06:46:33.584Z,99.90
2022-10-30T06:49:02.038Z,99.90
2022-10-30T06:51:30.006Z,99.90
2022-10-30T06:53:57.879Z,99.90
2022-10-30T06:56:25.805Z,99.90
2022-10-30T06:58:55.131Z,99.90
2022-10-30T07:01:23.172Z,99.90
2022-10-30T07:03:51.151Z,99.90
2022-10-30T07:06:19.029Z,99.90
2022-10-30T07:08:47.744Z,99.90
2022-10-30T07:11:15.622Z,99.90
2022-10-30T07:13:43.535Z,99.90
2022-10-30T07:16:12.790Z,99.90
2022-10-30T07:18:40.632Z,99.90
2022-10-30T07:21:08.716Z,99.90
2022-10-30T07:23:36.720Z,99.90
2022-10-30T07:26:04.710Z,99.90
2022-10-30T07:28:32.564Z,99.90
2022-10-30T07:31:00.591Z,99.90
2022-10-30T07:33:29.900Z,99.90
2022-10-30T07:35:57.759Z,99.90
2022-10-30T07:38:25.659Z,99.90
2022-10-30T07:40:54.081Z,99.90
2022-10-30T07:43:21.975Z,99.90
2022-10-30T07:45:49.815Z,99.90
2022-10-30T07:48:17.693Z,99.90
2022-10-30T07:50:46.898Z,99.90
2022-10-30T07:53:14.902Z,99.90
2022-10-30T07:55:43.477Z,99.90
2022-10-30T07:58:11.326Z,99.90
2022-10-30T08:00:39.289Z,99.90
2022-10-30T08:03:07.298Z,99.90
2022-10-30T08:05:35.386Z,99.90
2022-10-30T08:08:04.791Z,99.90
2022-10-30T08:10:32.605Z,99.90
2022-10-30T08:13:00.445Z,99.90
2022-10-30T08:15:28.288Z,99.90
2022-10-30T08:17:56.468Z,99.90
2022-10-30T08:20:25.089Z,99.90
2022-10-30T08:22:53.473Z,99.90
2022-10-30T08:25:24.208Z,99.90
2022-10-30T08:27:53.437Z,99.90
2022-10-30T08:30:21.333Z,99.90
2022-10-30T08:32:49.251Z,99.90
2022-10-30T08:35:20.065Z,99.90
2022-10-30T08:37:48.137Z,99.90
2022-10-30T08:40:16.043Z,99.90
2022-10-30T08:42:50.890Z,99.90
2022-10-30T08:45:18.746Z,99.90
2022-10-30T08:47:46.589Z,99.90
2022-10-30T08:50:14.604Z,99.90
2022-10-30T08:52:42.518Z,99.90
2022-10-30T08:55:10.618Z,99.90
2022-10-30T08:57:38.554Z,99.90
2022-10-30T09:00:09.010Z,99.90
2022-10-30T09:02:39.342Z,99.90
2022-10-30T09:05:07.689Z,99.90
2022-10-30T09:07:35.530Z,99.90
2022-10-30T09:10:03.372Z,99.90
2022-10-30T09:12:31.227Z,99.90
2022-10-30T09:14:59.068Z,99.90
2022-10-30T09:17:28.281Z,99.90
2022-10-30T09:19:56.308Z,99.90
2022-10-30T09:22:24.248Z,99.90
2022-10-30T09:24:52.157Z,99.90
2022-10-30T09:27:20.137Z,99.90
2022-10-30T09:29:48.026Z,99.90
2022-10-30T09:32:15.967Z,99.90
2022-10-30T09:34:45.294Z,99.90
2022-10-30T09:37:13.219Z,80.40
2022-10-30T09:39:41.201Z,81.00
2022-10-30T09:42:27.430Z,56.00
2022-10-30T09:45:27.276Z,60.50
2022-10-30T09:47:52.746Z,37.60
2022-10-30T09:50:26.437Z,55.20
2022-10-30T09:53:01.223Z,49.40
2022-10-30T09:55:33.417Z,54.10
2022-10-30T09:58:06.459Z,52.10
2022-10-30T10:00:37.924Z,40.00
2022-10-30T10:03:15.235Z,37.20
2022-10-30T10:05:47.126Z,56.00
2022-10-30T10:08:16.918Z,45.30
2022-10-30T10:10:45.479Z,19.40
2022-10-30T10:13:22.783Z,17.40
2022-10-30T10:15:51.747Z,25.20
2022-10-30T10:18:24.843Z,18.60
2022-10-30T10:20:54.905Z,23.90
2022-10-30T10:23:34.137Z,17.40
2022-10-30T10:26:03.725Z,22.50
2022-10-30T10:28:44.288Z,7.80
2022-10-30T10:31:18.139Z,12.30
2022-10-30T10:33:57.688Z,6.00
2022-10-30T10:36:32.861Z,18.00
2022-10-30T10:39:07.440Z,12.80
2022-10-30T10:41:56.354Z,12.00
2022-10-30T10:44:30.889Z,19.10
2022-10-30T10:47:07.422Z,9.30
2022-10-30T10:49:48.523Z,38.90
2022-10-30T10:52:18.806Z,58.80
2022-10-30T10:54:47.320Z,36.80
2022-10-30T10:57:18.314Z,27.30
2022-10-30T10:59:48.043Z,23.80
2022-10-30T11:02:29.963Z,13.60
2022-10-30T11:05:01.099Z,28.20
2022-10-30T11:07:32.963Z,31.20
2022-10-30T11:10:00.939Z,39.10
2022-10-30T11:12:33.647Z,28.70
2022-10-30T11:15:08.369Z,15.50
2022-10-30T11:17:39.665Z,28.60
2022-10-30T11:20:15.504Z,34.60
2022-10-30T11:22:47.557Z,32.10
2022-10-30T11:25:26.796Z,24.40
2022-10-30T11:27:59.368Z,44.10
2022-10-30T11:30:29.068Z,45.10
2022-10-30T11:32:57.600Z,37.10
2022-10-30T11:35:25.752Z,19.40
2022-10-30T11:38:13.286Z,27.40
2022-10-30T11:40:41.638Z,38.60
2022-10-30T11:43:09.706Z,13.10
2022-10-30T11:45:38.901Z,20.00
2022-10-30T11:48:14.331Z,11.50
2022-10-30T11:50:42.561Z,4.70
2022-10-30T11:53:14.216Z,3.30
2022-10-30T11:55:46.414Z,1.00
2022-10-30T11:58:24.034Z,7.30
2022-10-30T12:01:00.242Z,1.00
2022-10-30T12:03:29.862Z,15.80
2022-10-30T12:06:09.010Z,4.80
2022-10-30T12:08:38.404Z,12.10
2022-10-30T12:11:06.690Z,6.30
2022-10-30T12:13:38.434Z,8.80
2022-10-30T12:16:11.556Z,10.50
2022-10-30T12:18:39.870Z,12.00
2022-10-30T12:21:08.944Z,5.30
2022-10-30T12:23:38.151Z,2.20
2022-10-30T12:26:10.444Z,9.70
2022-10-30T12:28:38.407Z,5.70
2022-10-30T12:31:10.458Z,4.40
2022-10-30T12:33:42.383Z,5.40
2022-10-30T12:36:12.185Z,11.10
2022-10-30T12:38:43.527Z,7.60
2022-10-30T12:41:15.401Z,1.00
2022-10-30T12:43:43.785Z,1.00
2022-10-30T12:46:21.108Z,1.00
2022-10-30T12:48:50.540Z,1.00
2022-10-30T12:51:24.949Z,1.00
2022-10-30T12:53:58.531Z,3.60
2022-10-30T12:56:27.961Z,1.00
2022-10-30T12:58:58.682Z,1.00
2022-10-30T13:01:37.134Z,5.60
2022-10-30T13:04:08.628Z,6.60
2022-10-30T13:06:38.470Z,2.50
2022-10-30T13:09:12.517Z,6.40
2022-10-30T13:11:43.318Z,5.50
2022-10-30T13:14:14.506Z,19.80
2022-10-30T13:16:42.396Z,22.60
2022-10-30T13:19:11.096Z,23.40
2022-10-30T13:21:41.041Z,67.00
2022-10-30T13:24:12.885Z,22.80
2022-10-30T13:26:42.140Z,25.30
2022-10-30T13:29:21.276Z,24.00
2022-10-30T13:31:57.972Z,24.60
2022-10-30T13:34:31.391Z,40.00
2022-10-30T13:37:01.672Z,13.90
2022-10-30T13:39:32.334Z,11.90
2022-10-30T13:42:06.698Z,8.70
2022-10-30T13:44:39.585Z,14.50
2022-10-30T13:47:13.782Z,8.30
2022-10-30T13:49:49.633Z,9.40
2022-10-30T13:52:18.146Z,5.50
2022-10-30T13:54:55.909Z,12.40
2022-10-30T13:57:27.679Z,17.40
2022-10-30T14:00:00.704Z,50.60
2022-10-30T14:02:40.712Z,39.00
2022-10-30T14:05:16.174Z,25.90
2022-10-30T14:07:46.145Z,23.60
2022-10-30T14:10:17.033Z,22.40
2022-10-30T14:12:52.287Z,20.60
2022-10-30T14:15:33.037Z,27.20
2022-10-30T14:18:37.306Z,33.50
2022-10-30T14:21:33.031Z,33.30
2022-10-30T14:24:03.821Z,54.20
2022-10-30T14:26:33.046Z,38.00
2022-10-30T14:29:00.874Z,39.20
2022-10-30T14:31:35.843Z,42.00
2022-10-30T14:34:03.983Z,49.40
2022-10-30T14:36:50.094Z,48.80
2022-10-30T14:39:28.387Z,53.60
2022-10-30T14:42:01.488Z,74.50
2022-10-30T14:44:42.047Z,59.90
2022-10-30T14:47:34.454Z,55.60
2022-10-30T14:50:03.161Z,78.50
2022-10-30T14:52:38.174Z,88.80
2022-10-30T14:55:19.870Z,99.90
2022-10-30T14:57:52.909Z,99.90
2022-10-30T15:00:31.197Z,99.90
2022-10-30T15:02:59.304Z,93.60
2022-10-30T15:05:39.039Z,98.00
2022-10-30T15:08:12.146Z,99.90
2022-10-30T15:10:50.935Z,99.90
2022-10-30T15:13:20.317Z,99.90
2022-10-30T15:15:58.192Z,99.90
2022-10-30T15:18:30.313Z,99.90
2022-10-30T15:21:05.848Z,99.90
2022-10-30T15:23:34.679Z,99.90
2022-10-30T15:26:09.469Z,99.90
2022-10-30T15:28:39.502Z,99.90
2022-10-30T15:31:08.254Z,99.90
2022-10-30T15:33:37.667Z,99.90
2022-10-30T15:36:06.169Z,99.90
2022-10-30T15:38:34.117Z,99.90
2022-10-30T15:41:03.206Z,99.90
2022-10-30T15:43:32.517Z,99.90
2022-10-30T15:46:01.932Z,99.90
2022-10-30T15:48:31.114Z,99.90
2022-10-30T15:51:01.437Z,99.90
2022-10-30T15:53:35.122Z,99.90
2022-10-30T15:56:03.066Z,99.90
2022-10-30T15:58:37.066Z,99.90
2022-10-30T16:01:06.468Z,99.90
2022-10-30T16:03:34.471Z,99.90
2022-10-30T16:06:07.388Z,99.90
2022-10-30T16:08:43.667Z,99.90
2022-10-30T16:11:11.488Z,99.90
2022-10-30T16:13:39.387Z,99.90
2022-10-30T16:16:11.338Z,99.90
2022-10-30T16:18:39.227Z,99.90
2022-10-30T16:21:08.585Z,99.90
2022-10-30T16:23:39.695Z,99.90
2022-10-30T16:26:07.692Z,99.90
2022-10-30T16:28:37.536Z,99.90
2022-10-30T16:31:09.994Z,99.90
2022-10-30T16:33:38.055Z,99.90
2022-10-30T16:36:06.209Z,99.90
2022-10-30T16:38:39.036Z,99.90
2022-10-30T16:41:07.396Z,99.90
2022-10-30T16:43:35.494Z,99.90
2022-10-30T16:46:36.127Z,99.90
2022-10-30T16:49:05.978Z,99.90
2022-10-30T16:51:33.796Z,99.90
2022-10-30T16:54:01.648Z,99.90
2022-10-30T16:56:30.337Z,99.90
2022-10-30T16:58:59.873Z,99.90
2022-10-30T17:01:29.413Z,99.90
2022-10-30T17:03:57.438Z,99.90
2022-10-30T17:06:27.399Z,99.90
2022-10-30T17:08:55.835Z,99.90
2022-10-30T17:11:35.251Z,99.90
2022-10-30T17:14:04.011Z,99.90
2022-10-30T17:16:33.776Z,99.90
2022-10-30T17:19:02.532Z,99.90
2022-10-30T17:21:31.238Z,99.90
2022-10-30T17:24:00.163Z,99.90
2022-10-30T17:26:28.577Z,99.90
2022-10-30T17:28:56.504Z,99.90
2022-10-30T17:31:28.173Z,99.90
2022-10-30T17:34:17.123Z,99.90
2022-10-30T17:36:45.106Z,99.90
2022-10-30T17:39:12.955Z,99.90
2022-10-30T17:41:40.894Z,99.90
2022-10-30T17:44:08.824Z,99.90
2022-10-30T17:46:36.639Z,99.90
2022-10-30T17:49:04.452Z,99.90
2022-10-30T17:51:33.714Z,99.90
2022-10-30T17:54:01.578Z,99.90
2022-10-30T17:56:29.850Z,99.90
2022-10-30T17:58:57.663Z,99.90
2022-10-30T18:01:26.312Z,99.90
2022-10-30T18:03:55.475Z,99.90
2022-10-30T18:06:24.192Z,99.90
2022-10-30T18:08:53.483Z,99.90
2022-10-30T18:11:22.658Z,99.90
2022-10-30T18:13:51.232Z,99.90
2022-10-30T18:16:19.373Z,99.90
2022-10-30T18:18:47.347Z,99.90
2022-10-30T18:21:15.846Z,99.90
2022-10-30T18:23:59.014Z,99.90
2022-10-30T18:26:28.298Z,99.90
2022-10-30T18:28:56.140Z,99.90
2022-10-30T18:31:24.705Z,99.90
2022-10-30T18:33:52.552Z,99.90
2022-10-30T18:36:21.206Z,99.90
2022-10-30T18:38:49.190Z,99.90
2022-10-30T18:41:18.828Z,99.90
2022-10-30T18:43:48.094Z,99.90
2022-10-30T18:46:16.160Z,99.90
2022-10-30T18:48:44.021Z,99.90
2022-10-30T18:51:15.606Z,99.90
2022-10-30T18:53:51.004Z,99.90
2022-10-30T18:56:19.480Z,99.90
2022-10-30T18:58:48.641Z,99.90
2022-10-30T19:01:16.817Z,99.90
2022-10-30T19:03:44.837Z,99.90
2022-10-30T19:06:13.420Z,99.90
2022-10-30T19:08:41.301Z,99.90
2022-10-30T19:11:10.818Z,99.90
2022-10-30T19:13:40.161Z,99.90
2022-10-30T19:16:11.077Z,99.90
2022-10-30T19:18:38.998Z,99.90
2022-10-30T19:21:10.324Z,99.90
2022-10-30T19:23:42.443Z,99.90
2022-10-30T19:28:40.343Z,99.90
2022-10-30T19:31:10.726Z,99.90
2022-10-30T19:33:38.589Z,99.90
2022-10-30T19:36:06.978Z,99.90
2022-10-30T19:38:34.853Z,99.90
2022-10-30T19:41:02.907Z,99.90
2022-10-30T19:43:30.756Z,99.90
2022-10-30T19:45:58.587Z,99.90
2022-10-30T19:51:15.725Z,99.90
2022-10-30T19:53:43.668Z,99.90
2022-10-30T19:56:11.844Z,99.90
2022-10-30T19:58:39.915Z,99.90
2022-10-30T20:01:07.809Z,99.90
2022-10-30T20:03:37.013Z,99.90
2022-10-30T20:06:05.140Z,99.90
2022-10-30T20:08:33.015Z,99.90
2022-10-30T20:11:01.910Z,99.90
2022-10-30T20:13:30.029Z,99.90
2022-10-30T20:15:59.258Z,99.90
2022-10-30T20:18:30.145Z,99.90
2022-10-30T20:21:00.161Z,99.90
2022-10-30T20:23:28.056Z,99.90
2022-10-30T20:25:58.726Z,99.90
2022-10-30T20:28:28.425Z,99.90
2022-10-30T20:30:56.363Z,99.90
2022-10-30T20:33:25.432Z,99.90
2022-10-30T20:35:54.545Z,99.90
2022-10-30T20:38:26.082Z,99.90
2022-10-30T20:40:54.158Z,99.90
2022-10-30T20:43:22.866Z,99.90
2022-10-30T20:45:50.843Z,99.90
2022-10-30T20:48:18.659Z,99.90
2022-10-30T20:50:50.481Z,99.90
2022-10-30T20:53:21.319Z,99.90
2022-10-30T20:55:50.547Z,99.90
2022-10-30T20:58:21.547Z,99.90
2022-10-30T21:00:54.397Z,99.90
2022-10-30T21:03:22.267Z,99.90
2022-10-30T21:05:55.240Z,99.90
2022-10-30T21:08:23.071Z,99.90
2022-10-30T21:10:52.312Z,99.90
2022-10-30T21:13:20.162Z,99.90
2022-10-30T21:15:48.001Z,99.90
2022-10-30T21:18:15.853Z,99.90
2022-10-30T21:20:43.663Z,99.90
2022-10-30T21:23:11.467Z,99.90
2022-10-30T21:25:39.307Z,99.90
2022-10-30T21:28:08.650Z,99.90
2022-10-30T21:30:36.461Z,99.90
2022-10-30T21:33:05.510Z,99.90
2022-10-30T21:35:33.505Z,99.90
2022-10-30T21:38:02.417Z,99.90
2022-10-30T21:40:30.243Z,99.90
2022-10-30T21:43:01.403Z,99.90
2022-10-30T21:45:33.573Z,99.90
2022-10-30T21:48:01.512Z,99.90
2022-10-30T21:50:29.416Z,99.90
2022-10-30T21:52:57.762Z,99.90
2022-10-30T21:55:25.924Z,99.90
2022-10-30T21:58:11.523Z,99.90
2022-10-30T22:00:40.763Z,99.90
2022-10-30T22:03:10.806Z,99.90
2022-10-30T22:05:39.041Z,99.90
2022-10-30T22:08:07.145Z,99.90
2022-10-30T22:10:36.697Z,99.90
2022-10-30T22:13:04.810Z,99.90
2022-10-30T22:15:32.789Z,99.90
2022-10-30T22:18:02.591Z,99.90
2022-10-30T22:20:30.682Z,99.90
2022-10-30T22:23:04.023Z,99.90
2022-10-30T22:25:31.991Z,99.90
2022-10-30T22:28:02.278Z,99.90
2022-10-30T22:30:30.559Z,99.90
2022-10-30T22:32:58.920Z,99.90
2022-10-30T22:35:28.384Z,99.90
2022-10-30T22:37:58.602Z,99.90
2022-10-30T22:40:26.405Z,99.90
2022-10-30T22:42:54.434Z,99.90
2022-10-30T22:45:23.957Z,99.90
2022-10-30T22:47:51.854Z,99.90
2022-10-30T22:50:19.913Z,99.90
2022-10-30T22:52:49.110Z,99.90
2022-10-30T22:55:17.104Z,99.90
2022-10-30T22:57:44.956Z,99.90
2022-10-30T23:00:18.202Z,99.90
2022-10-30T23:02:47.306Z,99.90
2022-10-30T23:05:15.337Z,99.90
2022-10-30T23:07:43.432Z,99.90
2022-10-30T23:10:12.765Z,99.90
2022-10-30T23:12:40.635Z,99.90
2022-10-30T23:15:10.307Z,99.90
2022-10-30T23:17:38.396Z,99.90
2022-10-30T23:20:13.554Z,99.90
2022-10-30T23:22:41.515Z,99.90
2022-10-30T23:25:11.109Z,99.90
2022-10-30T23:27:41.534Z,99.90
2022-10-30T23:30:11.243Z,99.90
2022-10-30T23:32:39.265Z,99.90
2022-10-30T23:35:13.959Z,99.90
2022-10-30T23:37:41.942Z,99.90
2022-10-30T23:40:11.457Z,99.90
2022-10-30T23:42:40.819Z,99.90
2022-10-30T23:45:09.402Z,99.90
2022-10-30T23:47:41.263Z,99.90
2022-10-30T23:50:10.953Z,99.90
2022-10-30T23:52:38.945Z,99.90
2022-10-30T23:55:08.071Z,99.90
2022-10-30T23:57:35.879Z,99.90
